Time;durP1;ratioP1;P1;durP2;ratioP2;P2;SDS_P1;SDS_P2;PMS_P1;PMS_P2;Temp;Humidity;BMP_temperature;BMP_pressure;BME280_temperature;BME280_humidity;BME280_pressure;Samples;Min_cycle;Max_cycle;Signal;HPM_P1;HPM_P2
2022/02/09 00:04:29;;;;;;;16.85;8.20;;;9.20;99.90;;;;;;5003621;28;20047;-67
2022/02/09 00:09:21;;;;;;;15.52;8.32;;;9.20;99.90;;;;;;5004001;28;20065;-67
2022/02/09 00:12:02;;;;;;;14.77;7.43;;;9.30;99.90;;;;;;4985054;28;20126;-68
2022/02/09 00:14:39;;;;;;;14.07;7.13;;;9.30;99.90;;;;;;5023225;28;20049;-68
2022/02/09 00:17:27;;;;;;;12.95;6.60;;;9.30;99.90;;;;;;5004683;28;20050;-68
2022/02/09 00:23:15;;;;;;;13.68;7.07;;;9.30;99.90;;;;;;5007422;28;20085;-68
2022/02/09 00:26:21;;;;;;;11.85;7.15;;;9.40;99.90;;;;;;5016926;28;20176;-68
2022/02/09 00:39:12;;;;;;;14.43;6.53;;;9.50;99.90;;;;;;5007469;28;20053;-68
2022/02/09 01:38:22;;;;;;;13.50;7.22;;;9.40;99.90;;;;;;4968913;28;20050;-68
2022/02/09 01:56:40;;;;;;;11.43;6.38;;;9.40;99.90;;;;;;5005275;28;20053;-67
2022/02/09 01:59:06;;;;;;;10.32;5.78;;;9.30;99.90;;;;;;4990583;28;20073;-67
2022/02/09 02:01:32;;;;;;;11.45;6.22;;;9.30;99.90;;;;;;4990761;28;20050;-67
2022/02/09 02:03:58;;;;;;;12.77;6.60;;;9.30;99.90;;;;;;5008340;28;20517;-68
2022/02/09 02:06:23;;;;;;;12.65;6.82;;;9.40;99.90;;;;;;5030365;28;20053;-68
2022/02/09 02:08:52;;;;;;;11.13;5.88;;;9.40;99.90;;;;;;5029822;28;20054;-68
2022/02/09 02:18:59;;;;;;;10.93;6.07;;;9.50;99.90;;;;;;5014288;28;20130;-68
2022/02/09 02:21:56;;;;;;;10.15;5.57;;;9.50;99.90;;;;;;5023942;28;20045;-68
2022/02/09 02:32:59;;;;;;;14.48;6.45;;;9.40;99.90;;;;;;4990525;28;20513;-68
2022/02/09 02:57:16;;;;;;;14.27;6.97;;;9.30;99.90;;;;;;5023330;28;20085;-67
2022/02/09 03:08:08;;;;;;;12.20;6.05;;;9.20;99.90;;;;;;4989459;28;20050;-68
2022/02/09 03:13:16;;;;;;;9.98;6.25;;;9.30;99.90;;;;;;5005641;28;20054;-67
2022/02/09 03:15:57;;;;;;;8.10;6.10;;;9.30;99.90;;;;;;5005812;28;20050;-67
2022/02/09 03:18:49;;;;;;;11.10;5.95;;;9.20;99.90;;;;;;5005783;28;20046;-67
2022/02/09 03:21:33;;;;;;;8.48;6.00;;;9.20;99.90;;;;;;5021531;28;20368;-67
2022/02/09 03:24:07;;;;;;;11.60;5.78;;;9.20;99.90;;;;;;5005678;28;20092;-67
2022/02/09 03:27:46;;;;;;;11.73;5.80;;;9.20;99.90;;;;;;5004735;28;20054;-67
2022/02/09 03:46:24;;;;;;;13.18;6.57;;;9.10;99.90;;;;;;4932704;29;20067;-67
2022/02/09 03:51:50;;;;;;;16.67;7.32;;;9.10;99.90;;;;;;4929692;29;20520;-67
2022/02/09 03:54:35;;;;;;;12.82;7.53;;;9.10;99.90;;;;;;4935156;29;20599;-67
2022/02/09 03:57:20;;;;;;;15.68;6.80;;;9.10;99.90;;;;;;4945373;29;20059;-67
2022/02/09 03:59:46;;;;;;;12.88;7.07;;;9.10;99.90;;;;;;4929184;29;20047;-67
2022/02/09 04:02:12;;;;;;;12.90;7.38;;;9.10;99.90;;;;;;4929193;29;20059;-67
2022/02/09 04:04:37;;;;;;;11.35;6.97;;;9.10;99.90;;;;;;4929398;29;20055;-67
2022/02/09 04:07:03;;;;;;;15.40;7.72;;;9.00;99.90;;;;;;4951387;28;20052;-67
2022/02/09 04:09:32;;;;;;;12.25;7.88;;;9.00;99.90;;;;;;5003103;28;20054;-67
2022/02/09 04:14:32;;;;;;;14.60;7.95;;;9.00;99.90;;;;;;5000849;28;20062;-67
2022/02/09 04:22:51;;;;;;;12.20;7.75;;;9.00;99.90;;;;;;5004290;28;20521;-67
2022/02/09 04:51:33;;;;;;;11.40;8.30;;;9.10;99.90;;;;;;4967619;28;20057;-67
2022/02/09 04:56:49;;;;;;;13.95;7.93;;;9.10;99.90;;;;;;5003203;28;20557;-67
2022/02/09 05:23:24;;;;;;;17.02;7.68;;;9.00;99.90;;;;;;5006540;28;20054;-67
2022/02/09 05:26:04;;;;;;;12.65;7.63;;;8.90;99.90;;;;;;5006826;28;20046;-67
2022/02/09 05:28:30;;;;;;;14.20;7.55;;;9.00;99.90;;;;;;5002416;28;20472;-67
2022/02/09 05:30:56;;;;;;;12.93;7.75;;;9.10;99.90;;;;;;5023970;28;20049;-67
2022/02/09 05:33:25;;;;;;;13.15;7.85;;;9.10;99.90;;;;;;4991086;28;20121;-68
2022/02/09 05:35:51;;;;;;;13.68;8.07;;;9.00;99.90;;;;;;5019055;28;20053;-68
2022/02/09 05:38:18;;;;;;;15.57;8.18;;;9.10;99.90;;;;;;5011551;28;20046;-68
2022/02/09 05:40:44;;;;;;;10.38;7.20;;;9.10;99.90;;;;;;5021312;28;20045;-68
2022/02/09 05:43:12;;;;;;;16.25;8.10;;;9.10;99.90;;;;;;4980098;28;20058;-69
2022/02/09 05:46:05;;;;;;;12.32;8.23;;;9.10;99.90;;;;;;5003780;28;20437;-69
2022/02/09 05:49:18;;;;;;;11.65;8.25;;;9.10;99.90;;;;;;4998208;28;20081;-68
2022/02/09 05:56:38;;;;;;;13.52;8.88;;;9.10;99.90;;;;;;5000984;28;20049;-68
2022/02/09 06:01:46;;;;;;;16.65;9.10;;;9.10;99.90;;;;;;5001167;28;20049;-68
2022/02/09 06:04:11;;;;;;;15.43;9.80;;;9.10;99.90;;;;;;4959376;28;20065;-69
2022/02/09 06:06:37;;;;;;;12.02;9.60;;;9.20;99.90;;;;;;5000223;28;20034;-70
2022/02/09 06:09:03;;;;;;;14.02;8.82;;;9.10;99.90;;;;;;4993670;28;20052;-70
2022/02/09 06:11:42;;;;;;;11.82;10.05;;;9.10;99.90;;;;;;5001655;28;20041;-70
2022/02/09 06:14:42;;;;;;;14.35;10.30;;;9.10;99.90;;;;;;4975913;28;20041;-70
2022/02/09 06:19:54;;;;;;;13.57;9.88;;;9.20;99.90;;;;;;4976204;28;20080;-69
2022/02/09 06:22:21;;;;;;;15.02;9.93;;;9.10;99.90;;;;;;4999710;28;20045;-70
2022/02/09 06:24:47;;;;;;;14.65;10.18;;;9.10;99.90;;;;;;4974610;28;20062;-70
2022/02/09 06:27:14;;;;;;;10.98;9.30;;;9.00;99.90;;;;;;5000117;28;20048;-70
2022/02/09 06:29:45;;;;;;;13.35;10.05;;;9.10;99.90;;;;;;4991196;28;20057;-70
2022/02/09 06:32:12;;;;;;;16.95;10.20;;;9.10;99.90;;;;;;5000159;28;20055;-70
2022/02/09 06:34:40;;;;;;;14.88;11.23;;;9.20;99.90;;;;;;4957696;28;20065;-69
2022/02/09 06:39:47;;;;;;;16.25;10.35;;;9.10;99.90;;;;;;4991414;28;20095;-69
2022/02/09 06:42:22;;;;;;;16.48;9.98;;;9.10;99.90;;;;;;4994131;28;20338;-70
2022/02/09 06:44:52;;;;;;;16.10;10.27;;;9.10;99.90;;;;;;4974144;28;20223;-68
2022/02/09 06:47:22;;;;;;;15.35;9.70;;;9.10;99.90;;;;;;5000214;28;20383;-68
2022/02/09 06:49:56;;;;;;;13.48;9.65;;;9.10;99.90;;;;;;4990612;28;20125;-68
2022/02/09 06:52:22;;;;;;;14.35;10.27;;;9.10;99.90;;;;;;4997747;28;20050;-67
2022/02/09 06:55:07;;;;;;;13.60;9.32;;;9.10;99.90;;;;;;4992417;28;20056;-68
2022/02/09 06:57:47;;;;;;;16.02;10.30;;;9.20;99.90;;;;;;4992092;28;20565;-68
2022/02/09 07:00:14;;;;;;;13.20;9.47;;;9.10;99.90;;;;;;4978451;28;20079;-68
2022/02/09 07:02:41;;;;;;;12.65;9.27;;;9.10;99.90;;;;;;4987469;28;20057;-68
2022/02/09 07:05:11;;;;;;;15.05;9.57;;;9.20;99.90;;;;;;4985870;28;20045;-67
2022/02/09 07:07:37;;;;;;;14.52;9.20;;;9.10;99.90;;;;;;4992784;28;20121;-68
2022/02/09 07:10:05;;;;;;;11.70;9.45;;;9.20;99.90;;;;;;5017220;28;20128;-67
2022/02/09 07:12:31;;;;;;;13.60;9.50;;;9.20;99.90;;;;;;4999681;28;20045;-68
2022/02/09 07:14:56;;;;;;;14.98;9.52;;;9.20;99.90;;;;;;4987845;28;20052;-68
2022/02/09 07:17:23;;;;;;;14.02;9.30;;;9.20;99.90;;;;;;5000671;28;20497;-68
2022/02/09 07:20:05;;;;;;;15.18;9.90;;;9.20;99.90;;;;;;4991109;28;20064;-67
2022/02/09 07:22:35;;;;;;;17.48;9.23;;;9.10;99.90;;;;;;5004761;28;20054;-67
2022/02/09 07:25:07;;;;;;;14.63;9.18;;;9.10;99.90;;;;;;4990274;28;20483;-68
2022/02/09 07:27:47;;;;;;;12.75;9.27;;;9.10;99.90;;;;;;5017260;28;20042;-68
2022/02/09 07:30:14;;;;;;;15.88;8.73;;;9.10;99.90;;;;;;5007341;28;20076;-68
2022/02/09 07:32:40;;;;;;;11.52;8.23;;;9.10;99.90;;;;;;5006808;28;20161;-68
2022/02/09 07:35:06;;;;;;;11.35;8.90;;;9.10;99.90;;;;;;4996724;28;20555;-67
2022/02/09 07:37:31;;;;;;;12.68;8.20;;;9.10;99.90;;;;;;5016954;28;20034;-67
2022/02/09 07:39:59;;;;;;;11.10;7.88;;;9.10;99.90;;;;;;5007557;28;20084;-67
2022/02/09 07:42:28;;;;;;;13.88;7.68;;;9.10;99.90;;;;;;4999525;28;20088;-67
2022/02/09 07:50:03;;;;;;;11.10;6.65;;;9.10;99.90;;;;;;5006210;28;20054;-67
2022/02/09 07:52:29;;;;;;;10.57;6.85;;;9.10;99.90;;;;;;5015443;28;20509;-68
2022/02/09 07:54:57;;;;;;;11.65;6.03;;;9.10;99.90;;;;;;5010022;28;20422;-67
2022/02/09 07:57:22;;;;;;;10.05;6.10;;;9.00;99.90;;;;;;5019262;28;20056;-67
2022/02/09 07:59:48;;;;;;;11.73;5.82;;;9.10;99.90;;;;;;5006496;28;20121;-67
2022/02/09 08:02:14;;;;;;;10.20;5.43;;;9.10;99.90;;;;;;5014306;28;20101;-66
2022/02/09 08:04:40;;;;;;;9.05;5.30;;;9.10;99.90;;;;;;5008484;28;20050;-66
2022/02/09 08:07:05;;;;;;;9.15;5.35;;;9.10;99.90;;;;;;5001538;28;20211;-66
2022/02/09 08:09:36;;;;;;;9.18;5.28;;;9.10;99.90;;;;;;5005590;28;20058;-66
2022/02/09 08:33:40;;;;;;;9.90;6.35;;;9.10;99.90;;;;;;4901251;28;20086;-68
2022/02/09 08:36:06;;;;;;;10.40;6.28;;;9.10;99.90;;;;;;4922357;28;20051;-67
2022/02/09 08:38:31;;;;;;;11.55;6.57;;;9.10;99.90;;;;;;4915781;29;20456;-67
2022/02/09 08:40:58;;;;;;;8.75;5.82;;;9.20;99.90;;;;;;4935573;29;20076;-66
2022/02/09 08:43:24;;;;;;;14.32;6.95;;;9.20;99.90;;;;;;4911786;29;20104;-66
2022/02/09 08:45:51;;;;;;;12.48;6.53;;;9.20;99.90;;;;;;4922703;29;20059;-67
2022/02/09 08:48:21;;;;;;;11.00;7.35;;;9.20;99.90;;;;;;4929054;29;20056;-66
2022/02/09 08:50:49;;;;;;;13.55;7.18;;;9.20;99.90;;;;;;4924156;29;20087;-67
2022/02/09 08:53:16;;;;;;;12.68;7.63;;;9.10;99.90;;;;;;4929099;29;20060;-66
2022/02/09 08:55:42;;;;;;;12.82;7.78;;;9.20;99.90;;;;;;4919890;29;20106;-68
2022/02/09 08:58:08;;;;;;;11.00;7.45;;;9.20;99.90;;;;;;4927238;29;20151;-67
2022/02/09 09:00:37;;;;;;;14.27;7.70;;;9.20;99.90;;;;;;4938935;29;20047;-67
2022/02/09 09:05:41;;;;;;;11.02;7.90;;;9.30;99.90;;;;;;5003558;28;20038;-66
2022/02/09 09:11:45;;;;;;;14.00;8.75;;;9.30;99.90;;;;;;4983805;28;20054;-66
2022/02/09 09:58:12;;;;;;;11.90;8.45;;;8.70;99.90;;;;;;4997048;28;20093;-66
2022/02/09 10:02:48;;;;;;;13.13;8.70;;;8.80;99.90;;;;;;4999296;28;20053;-66
2022/02/09 10:05:41;;;;;;;13.65;7.85;;;8.70;99.90;;;;;;4995442;28;20053;-66
2022/02/09 10:33:53;;;;;;;13.30;8.05;;;8.90;99.90;;;;;;5007547;28;20667;-66
2022/02/09 10:36:20;;;;;;;13.57;7.68;;;8.90;99.90;;;;;;4987616;28;20549;-66
2022/02/09 10:38:48;;;;;;;12.55;8.13;;;9.10;99.90;;;;;;4991714;28;20046;-66
2022/02/09 10:41:29;;;;;;;10.25;7.78;;;9.00;99.90;;;;;;4997632;28;20044;-66
2022/02/09 10:44:07;;;;;;;12.50;9.15;;;8.90;99.90;;;;;;4990181;28;20518;-66
2022/02/09 10:46:52;;;;;;;12.18;8.00;;;8.90;99.90;;;;;;4995630;28;20074;-66
2022/02/09 10:49:21;;;;;;;12.80;7.72;;;8.90;99.90;;;;;;4990736;28;20041;-65
2022/02/09 10:52:07;;;;;;;10.40;7.35;;;8.90;99.90;;;;;;5014097;28;20106;-66
2022/02/09 10:54:35;;;;;;;9.27;6.72;;;9.00;99.90;;;;;;4993633;28;20130;-66
2022/02/09 10:57:04;;;;;;;12.82;8.25;;;9.00;99.90;;;;;;4999664;28;20054;-66
2022/02/09 10:59:34;;;;;;;12.45;7.90;;;9.00;99.90;;;;;;4989019;28;20057;-66
2022/02/09 11:02:02;;;;;;;11.27;7.82;;;9.00;99.90;;;;;;4999979;28;20119;-66
2022/02/09 11:04:29;;;;;;;13.32;8.85;;;9.00;99.90;;;;;;4990383;28;20112;-66
2022/02/09 11:06:56;;;;;;;11.05;7.15;;;9.00;99.90;;;;;;4995378;28;20115;-66
2022/02/09 11:09:22;;;;;;;13.60;7.82;;;8.90;99.90;;;;;;4991106;28;20060;-65
2022/02/09 11:11:49;;;;;;;14.07;8.73;;;8.90;99.90;;;;;;5005993;28;20038;-65
2022/02/09 11:14:20;;;;;;;13.07;8.23;;;8.90;99.90;;;;;;4989820;28;20085;-65
2022/02/09 11:16:57;;;;;;;14.63;7.55;;;9.10;99.90;;;;;;5015124;28;20109;-66
2022/02/09 11:19:35;;;;;;;15.05;7.70;;;9.10;99.90;;;;;;5007395;28;20042;-65
2022/02/09 11:22:10;;;;;;;13.68;8.13;;;9.20;99.90;;;;;;4996431;28;20054;-65
2022/02/09 11:24:43;;;;;;;12.10;6.95;;;9.10;99.90;;;;;;4986202;28;20533;-65
2022/02/09 11:27:20;;;;;;;14.13;7.57;;;9.20;99.90;;;;;;4995793;28;20046;-65
2022/02/09 11:29:57;;;;;;;10.38;6.40;;;9.10;99.90;;;;;;5002668;28;20106;-65
2022/02/09 11:33:05;;;;;;;14.45;6.80;;;9.20;99.90;;;;;;4996315;28;20124;-65
2022/02/09 11:35:33;;;;;;;12.68;7.35;;;9.30;99.90;;;;;;4975062;28;20359;-65
2022/02/09 11:40:39;;;;;;;11.55;6.53;;;9.30;99.90;;;;;;4981370;28;20046;-65
2022/02/09 11:52:07;;;;;;;11.32;6.28;;;9.30;99.90;;;;;;4995650;28;20050;-66
2022/02/09 11:54:51;;;;;;;12.07;5.25;;;9.30;99.90;;;;;;4999572;28;20046;-65
2022/02/09 12:10:52;;;;;;;9.70;4.70;;;9.30;99.90;;;;;;4974496;28;20077;-66
2022/02/09 12:13:59;;;;;;;8.25;5.03;;;9.20;99.90;;;;;;4996120;28;20062;-65
2022/02/09 12:19:25;;;;;;;9.00;4.68;;;9.10;99.90;;;;;;4986374;28;20046;-67
2022/02/09 12:24:17;;;;;;;10.02;4.68;;;9.10;99.90;;;;;;4988681;28;20076;-66
2022/02/09 12:27:04;;;;;;;11.10;4.72;;;9.10;99.90;;;;;;4994558;28;20286;-65
2022/02/09 12:29:35;;;;;;;7.70;5.80;;;9.20;99.90;;;;;;4988785;28;20140;-65
2022/02/09 12:32:25;;;;;;;8.82;6.05;;;9.10;99.90;;;;;;4995272;28;20054;-65
2022/02/09 12:34:57;;;;;;;11.30;6.00;;;9.00;99.90;;;;;;4981422;28;20681;-66
2022/02/09 12:37:25;;;;;;;11.90;6.80;;;9.10;99.90;;;;;;4998180;28;20038;-66
2022/02/09 12:40:06;;;;;;;11.50;6.80;;;9.10;99.90;;;;;;4987792;28;20305;-65
2022/02/09 12:42:35;;;;;;;9.43;6.50;;;9.00;99.90;;;;;;4996722;28;20109;-66
2022/02/09 12:45:06;;;;;;;15.00;7.38;;;9.00;99.90;;;;;;4996032;28;20097;-66
2022/02/09 12:47:36;;;;;;;13.20;7.38;;;9.10;99.90;;;;;;5003477;28;20046;-65
2022/02/09 12:50:13;;;;;;;16.15;8.07;;;9.00;99.90;;;;;;5007138;28;20076;-65
2022/02/09 12:52:42;;;;;;;14.63;7.82;;;8.90;99.90;;;;;;4996309;28;20042;-65
2022/02/09 12:55:23;;;;;;;10.77;7.00;;;9.00;99.90;;;;;;4990339;28;20046;-65
2022/02/09 12:57:52;;;;;;;13.55;7.60;;;9.00;99.90;;;;;;4993842;28;20130;-66
2022/02/09 13:00:25;;;;;;;13.77;5.97;;;9.10;99.90;;;;;;4999385;28;20081;-66
2022/02/09 13:02:53;;;;;;;7.55;5.93;;;9.00;99.90;;;;;;4998080;28;20046;-65
2022/02/09 13:05:20;;;;;;;14.07;5.95;;;9.00;99.90;;;;;;5002785;28;20149;-66
2022/02/09 13:08:00;;;;;;;11.30;6.28;;;8.90;99.90;;;;;;5012520;28;20055;-65
2022/02/09 13:10:39;;;;;;;9.32;5.78;;;8.90;99.90;;;;;;4988097;28;20085;-65
2022/02/09 13:13:23;;;;;;;13.10;6.25;;;8.90;99.90;;;;;;4997271;28;20054;-66
2022/02/09 13:16:08;;;;;;;8.55;5.68;;;9.00;99.90;;;;;;5003444;28;20481;-65
2022/02/09 14:11:39;;;;;;;9.55;6.13;;;8.90;99.90;;;;;;4975506;28;20049;-66
2022/02/09 14:17:33;;;;;;;9.55;6.13;;;8.90;99.90;;;;;;4987862;28;20337;-65
2022/02/09 14:57:10;;;;;;;7.45;6.22;;;8.90;99.90;;;;;;5000089;28;20089;-65
2022/02/09 15:02:10;;;;;;;8.23;6.82;;;8.90;99.90;;;;;;5018603;28;20084;-65
2022/02/09 15:10:15;;;;;;;9.75;7.22;;;8.80;99.90;;;;;;4985597;28;20046;-65
2022/02/09 15:15:48;;;;;;;9.43;7.55;;;8.90;99.90;;;;;;4990179;28;20046;-65
2022/02/09 15:23:22;;;;;;;8.95;7.35;;;8.90;99.90;;;;;;5022929;28;20282;-66
2022/02/09 15:25:48;;;;;;;8.32;6.15;;;8.80;99.90;;;;;;5006693;28;20862;-65
2022/02/09 15:28:14;;;;;;;10.88;7.13;;;8.80;99.90;;;;;;5000535;28;20045;-65
2022/02/09 15:31:04;;;;;;;7.72;6.72;;;8.80;99.90;;;;;;4982708;28;20173;-65
2022/02/09 15:33:37;;;;;;;7.72;6.18;;;8.70;99.90;;;;;;4999633;28;20049;-65
2022/02/09 15:36:06;;;;;;;7.78;6.15;;;8.80;99.90;;;;;;4978793;28;20056;-66
2022/02/09 15:38:43;;;;;;;9.65;5.93;;;8.80;99.90;;;;;;5001679;28;20391;-65
2022/02/09 15:41:20;;;;;;;7.43;5.53;;;8.70;99.90;;;;;;5006090;28;20104;-66
2022/02/09 16:05:56;;;;;;;6.50;4.70;;;8.70;99.90;;;;;;4968345;28;20042;-65
2022/02/09 16:24:53;;;;;;;8.07;4.93;;;8.60;99.90;;;;;;4975488;28;20062;-67
2022/02/09 16:46:14;;;;;;;10.35;6.90;;;8.60;99.90;;;;;;4985799;28;20127;-66
2022/02/09 16:48:50;;;;;;;10.27;6.32;;;8.50;99.90;;;;;;4993397;28;20159;-66
2022/02/09 16:51:19;;;;;;;11.57;6.50;;;8.60;99.90;;;;;;4986924;28;20046;-67
2022/02/09 17:19:00;;;;;;;14.00;7.35;;;8.40;99.90;;;;;;4926259;29;20107;-66
2022/02/09 17:21:27;;;;;;;12.88;7.78;;;8.40;99.90;;;;;;4913556;29;20081;-66
2022/02/09 17:23:57;;;;;;;15.65;8.60;;;8.40;99.90;;;;;;4920030;29;20142;-66
2022/02/09 17:26:25;;;;;;;18.63;8.20;;;8.30;99.90;;;;;;4930931;28;20080;-68
2022/02/09 17:28:58;;;;;;;12.43;8.25;;;8.40;99.90;;;;;;4952845;29;20094;-68
2022/02/09 17:36:44;;;;;;;17.05;8.88;;;8.40;99.90;;;;;;4917916;29;20051;-68
2022/02/09 17:58:03;;;;;;;18.27;10.43;;;8.20;99.90;;;;;;5019693;28;20049;-67
2022/02/09 18:00:29;;;;;;;17.85;9.52;;;8.20;99.90;;;;;;4992294;28;20158;-67
2022/02/09 18:02:55;;;;;;;16.33;9.90;;;8.10;99.90;;;;;;4986884;28;20074;-66
2022/02/09 18:05:46;;;;;;;19.60;9.43;;;8.30;99.90;;;;;;5010179;28;20065;-66
2022/02/09 18:08:20;;;;;;;18.13;9.07;;;8.30;99.90;;;;;;5020034;28;20050;-67
2022/02/09 18:11:07;;;;;;;18.65;9.70;;;8.10;99.90;;;;;;4992420;28;20114;-65
2022/02/09 18:25:10;;;;;;;18.20;9.90;;;8.10;99.90;;;;;;4992226;28;20068;-66
2022/02/09 18:29:58;;;;;;;19.77;10.32;;;8.20;99.90;;;;;;4997444;28;20046;-67
2022/02/09 18:32:52;;;;;;;19.10;10.10;;;8.00;99.90;;;;;;5001250;28;20093;-66
2022/02/09 18:44:06;;;;;;;22.17;11.25;;;8.10;99.90;;;;;;4904121;29;20052;-66
2022/02/09 19:00:01;;;;;;;25.17;12.80;;;8.20;99.90;;;;;;4918698;29;20111;-67
2022/02/09 19:02:38;;;;;;;25.45;13.10;;;8.30;99.90;;;;;;4873781;29;20060;-66
2022/02/09 19:05:28;;;;;;;23.63;12.82;;;8.30;99.90;;;;;;4908026;29;20064;-67
2022/02/09 19:08:13;;;;;;;23.88;12.70;;;8.30;99.90;;;;;;4902019;29;20134;-67
2022/02/09 19:31:49;;;;;;;34.65;16.77;;;8.30;99.90;;;;;;4976350;28;20565;-67
2022/02/09 19:45:49;;;;;;;36.28;18.70;;;8.20;99.90;;;;;;4989233;28;20234;-66
2022/02/09 19:48:16;;;;;;;39.38;18.35;;;8.20;99.90;;;;;;4987952;28;20054;-66
2022/02/09 19:55:58;;;;;;;30.92;17.67;;;8.10;99.90;;;;;;5007731;28;20064;-66
2022/02/09 19:58:36;;;;;;;36.65;18.13;;;8.00;99.90;;;;;;5015977;28;20056;-66
2022/02/09 20:01:02;;;;;;;35.38;18.38;;;7.90;99.90;;;;;;4987839;28;20057;-66
2022/02/09 20:03:28;;;;;;;31.23;17.25;;;7.90;99.90;;;;;;5017834;28;20045;-66
2022/02/09 20:05:54;;;;;;;35.45;18.35;;;7.90;99.90;;;;;;4989252;28;20538;-67
2022/02/09 20:08:19;;;;;;;36.45;17.38;;;8.00;99.90;;;;;;4999125;28;20050;-66
2022/02/09 20:10:45;;;;;;;29.45;15.68;;;8.00;99.90;;;;;;4985145;28;20050;-66
2022/02/09 20:13:11;;;;;;;31.55;17.33;;;8.00;99.90;;;;;;4976728;28;20073;-66
2022/02/09 20:15:37;;;;;;;32.65;16.85;;;7.90;99.90;;;;;;4998311;28;20486;-67
2022/02/09 20:18:02;;;;;;;29.38;16.33;;;8.00;99.90;;;;;;4987787;28;20373;-66
2022/02/09 20:20:30;;;;;;;29.38;16.10;;;7.90;99.90;;;;;;4982205;28;20090;-67
2022/02/09 20:22:58;;;;;;;34.70;16.33;;;8.00;99.90;;;;;;5015069;28;20083;-67
2022/02/09 20:25:24;;;;;;;31.42;16.40;;;7.90;99.90;;;;;;5005948;28;20045;-67
2022/02/09 20:27:52;;;;;;;30.13;16.02;;;8.00;99.90;;;;;;4999376;28;20049;-67
2022/02/09 20:30:22;;;;;;;32.63;16.15;;;7.90;99.90;;;;;;5004210;28;20482;-67
2022/02/09 20:32:53;;;;;;;31.50;15.18;;;8.00;99.90;;;;;;4993332;28;20085;-66
2022/02/09 20:35:20;;;;;;;28.63;15.68;;;7.80;99.90;;;;;;4987403;28;20058;-67
2022/02/09 20:37:49;;;;;;;33.22;16.33;;;7.90;99.90;;;;;;4972408;28;20117;-67
2022/02/09 20:40:25;;;;;;;32.08;15.63;;;7.80;99.90;;;;;;4995290;28;20045;-68
2022/02/09 20:42:53;;;;;;;33.03;17.08;;;7.90;99.90;;;;;;4999969;28;20057;-67
2022/02/09 20:45:28;;;;;;;33.47;16.63;;;8.00;99.90;;;;;;5001533;28;20050;-66
2022/02/09 20:47:59;;;;;;;35.20;17.42;;;8.00;99.90;;;;;;5006452;28;20044;-66
2022/02/09 20:50:26;;;;;;;37.53;17.95;;;7.90;99.90;;;;;;5002120;28;20046;-66
2022/02/09 20:52:52;;;;;;;40.33;18.83;;;8.00;99.90;;;;;;5001492;28;20093;-66
2022/02/09 20:55:18;;;;;;;34.72;18.50;;;7.90;99.90;;;;;;5005390;28;20038;-66
2022/02/09 20:57:44;;;;;;;40.17;17.88;;;8.00;99.90;;;;;;5003243;28;20042;-66
2022/02/09 21:00:18;;;;;;;39.65;18.25;;;8.00;99.90;;;;;;5003538;28;20074;-66
2022/02/09 21:02:52;;;;;;;41.65;18.60;;;8.00;99.90;;;;;;4996519;28;20137;-66
2022/02/09 21:07:57;;;;;;;35.60;18.27;;;8.00;99.90;;;;;;5005534;28;20068;-66
2022/02/09 21:11:17;;;;;;;40.70;20.80;;;8.10;99.90;;;;;;5006537;28;20105;-66
2022/02/09 21:13:23;;;;;;;42.58;20.90;;;8.00;99.90;;;;;;5007632;28;20102;-67
2022/02/09 21:18:36;;;;;;;54.38;22.67;;;8.10;99.90;;;;;;4998146;28;20046;-66
2022/02/09 21:26:39;;;;;;;51.72;23.20;;;8.00;99.90;;;;;;4997828;28;20057;-66
2022/02/09 21:52:55;;;;;;;69.53;27.52;;;8.00;99.90;;;;;;5019660;28;20079;-68
2022/02/09 21:55:27;;;;;;;64.95;27.10;;;8.00;99.90;;;;;;5010834;28;20046;-68
2022/02/09 22:27:09;;;;;;;65.88;27.58;;;7.90;99.90;;;;;;5009711;28;20060;-68
2022/02/09 22:48:22;;;;;;;64.03;26.05;;;8.00;99.90;;;;;;5009490;28;20053;-67
2022/02/09 22:56:21;;;;;;;70.53;29.02;;;8.10;99.90;;;;;;5026002;28;20100;-68
2022/02/09 22:58:46;;;;;;;74.47;29.65;;;8.10;99.90;;;;;;5005401;28;20080;-68
2022/02/09 23:01:23;;;;;;;73.10;29.60;;;8.10;99.90;;;;;;5007737;28;20050;-68
2022/02/09 23:06:49;;;;;;;77.47;29.80;;;8.10;99.90;;;;;;5010559;28;20050;-68
2022/02/09 23:18:12;;;;;;;80.50;30.17;;;7.90;99.90;;;;;;5024515;28;20057;-68
2022/02/09 23:58:21;;;;;;;79.22;27.50;;;8.10;99.90;;;;;;5006803;28;20127;-68
